createdAt,value
2023-02-16T00:02:19.243Z,2.09
2023-02-16T00:07:22.072Z,2.03
2023-02-16T00:12:43.688Z,2.04
2023-02-16T00:17:46.431Z,2.23
2023-02-16T00:22:49.159Z,2.24
2023-02-16T00:27:53.379Z,2.32
2023-02-16T00:32:56.130Z,2.46
2023-02-16T00:37:58.866Z,2.55
2023-02-16T00:43:02.979Z,2.56
2023-02-16T00:48:06.201Z,2.52
2023-02-16T00:53:08.916Z,2.31
2023-02-16T00:58:22.100Z,2.33
2023-02-16T01:03:28.204Z,2.34
2023-02-16T01:08:48.855Z,2.23
2023-02-16T01:13:54.138Z,2.11
2023-02-16T01:18:56.831Z,2.13
2023-02-16T01:24:00.597Z,2.23
2023-02-16T01:29:04.746Z,2.28
2023-02-16T01:34:07.485Z,2.43
2023-02-16T01:39:13.455Z,2.44
2023-02-16T01:44:21.886Z,2.49
2023-02-16T01:49:24.589Z,3.04
2023-02-16T01:54:36.921Z,3.42
2023-02-16T02:00:05.048Z,3.19
2023-02-16T02:05:37.873Z,2.66
2023-02-16T02:10:53.043Z,2.33
2023-02-16T02:15:59.254Z,2.81
2023-02-16T02:21:53.913Z,3.53
2023-02-16T02:27:11.664Z,3.47
2023-02-16T02:32:23.360Z,3.42
2023-02-16T02:37:37.471Z,3.52
2023-02-16T02:42:48.601Z,3.55
2023-02-16T02:54:47.195Z,3.45
2023-02-16T03:00:15.364Z,3.19
2023-02-16T03:05:22.471Z,3.10
2023-02-16T03:10:45.779Z,3.55
2023-02-16T03:15:55.996Z,3.67
2023-02-16T03:21:17.331Z,3.63
2023-02-16T03:26:38.318Z,3.50
2023-02-16T03:31:42.846Z,3.56
2023-02-16T03:36:48.189Z,3.57
2023-02-16T03:41:53.115Z,3.63
2023-02-16T03:46:57.301Z,3.69
2023-02-16T03:52:00.005Z,3.37
2023-02-16T03:57:02.776Z,2.57
2023-02-16T04:02:06.838Z,2.02
2023-02-16T04:07:09.591Z,1.90
2023-02-16T04:12:31.266Z,1.82
2023-02-16T04:17:35.425Z,1.78
2023-02-16T04:22:38.619Z,1.69
2023-02-16T04:27:43.160Z,1.62
2023-02-16T04:32:47.585Z,1.72
2023-02-16T04:37:50.468Z,1.64
2023-02-16T04:42:53.266Z,1.70
2023-02-16T04:47:57.435Z,1.72
2023-02-16T04:53:00.324Z,1.75
2023-02-16T04:58:03.156Z,1.71
2023-02-16T05:03:07.296Z,1.84
2023-02-16T05:08:10.051Z,2.01
2023-02-16T05:13:44.918Z,2.18
2023-02-16T05:18:49.109Z,2.30
2023-02-16T05:23:51.927Z,2.39
2023-02-16T05:28:54.782Z,2.21
2023-02-16T05:33:58.934Z,2.19
2023-02-16T05:39:01.811Z,2.19
2023-02-16T05:44:05.964Z,2.29
2023-02-16T05:49:11.722Z,2.39
2023-02-16T05:54:18.024Z,2.35
2023-02-16T05:59:21.253Z,2.14
2023-02-16T06:04:25.512Z,1.72
2023-02-16T06:09:28.555Z,1.48
2023-02-16T06:14:31.487Z,1.27
2023-02-16T06:19:35.711Z,1.20
2023-02-16T06:24:38.591Z,1.27
2023-02-16T06:29:41.409Z,1.43
2023-02-16T06:34:45.668Z,1.53
2023-02-16T06:39:48.606Z,1.58
2023-02-16T06:44:51.421Z,1.68
2023-02-16T06:49:55.602Z,1.77
2023-02-16T06:54:58.459Z,1.71
2023-02-16T07:00:01.215Z,1.80
2023-02-16T07:05:05.784Z,2.09
2023-02-16T07:10:14.716Z,2.47
2023-02-16T07:15:17.581Z,2.41
2023-02-16T07:20:21.712Z,2.59
2023-02-16T07:25:26.267Z,2.83
2023-02-16T07:30:29.205Z,3.05
2023-02-16T07:35:33.860Z,3.66
2023-02-16T07:40:36.791Z,4.11
2023-02-16T07:45:39.628Z,4.29
2023-02-16T07:50:43.835Z,4.30
2023-02-16T07:55:47.715Z,4.31
2023-02-16T08:00:50.595Z,4.59
2023-02-16T08:05:54.797Z,4.78
2023-02-16T08:10:57.616Z,4.80
2023-02-16T08:16:01.587Z,4.34
2023-02-16T08:21:14.013Z,4.15
2023-02-16T08:26:18.236Z,3.91
2023-02-16T08:31:25.501Z,4.07
2023-02-16T08:36:32.461Z,4.32
2023-02-16T08:41:37.326Z,4.35
2023-02-16T08:46:42.640Z,4.48
2023-02-16T08:51:48.912Z,4.44
2023-02-16T08:56:51.754Z,4.50
2023-02-16T09:01:54.618Z,4.46
2023-02-16T09:06:59.586Z,4.28
2023-02-16T09:12:02.564Z,4.34
2023-02-16T09:17:05.538Z,4.52
2023-02-16T09:22:10.722Z,5.04
2023-02-16T09:27:13.534Z,5.48
2023-02-16T09:32:17.248Z,5.63
2023-02-16T09:37:21.458Z,5.73
2023-02-16T09:42:34.581Z,5.80
2023-02-16T09:47:40.730Z,6.42
2023-02-16T09:52:52.506Z,7.37
2023-02-16T09:58:04.245Z,8.11
2023-02-16T10:03:23.632Z,8.49
2023-02-16T10:08:32.290Z,8.54
2023-02-16T10:13:43.948Z,8.69
2023-02-16T10:18:52.862Z,9.17
2023-02-16T10:24:02.058Z,9.01
2023-02-16T10:29:08.661Z,8.77
2023-02-16T10:34:22.921Z,9.08
2023-02-16T10:39:34.306Z,9.16
2023-02-16T10:44:41.429Z,9.33
2023-02-16T10:49:44.908Z,8.59
2023-02-16T10:54:49.605Z,9.09
2023-02-16T10:59:52.464Z,9.02
2023-02-16T11:04:56.712Z,9.03
2023-02-16T11:10:19.247Z,9.14
2023-02-16T11:15:25.981Z,9.16
2023-02-16T11:20:31.076Z,8.76
2023-02-16T11:25:35.205Z,9.02
2023-02-16T11:30:41.317Z,8.78
2023-02-16T11:35:45.972Z,9.15
2023-02-16T11:40:54.307Z,9.25
2023-02-16T11:46:04.172Z,9.24
2023-02-16T11:51:09.717Z,9.18
2023-02-16T11:56:24.945Z,9.13
2023-02-16T12:01:41.188Z,8.92
2023-02-16T12:06:58.484Z,8.99
2023-02-16T12:12:12.052Z,9.10
2023-02-16T12:17:24.814Z,8.91
2023-02-16T12:22:33.200Z,8.93
2023-02-16T12:27:43.578Z,9.63
2023-02-16T12:32:59.260Z,9.49
2023-02-16T12:38:11.548Z,9.70
2023-02-16T12:43:32.014Z,9.74
2023-02-16T12:48:42.617Z,9.63
2023-02-16T12:53:51.951Z,9.93
2023-02-16T12:59:07.820Z,10.04
2023-02-16T13:04:22.567Z,9.83
2023-02-16T13:09:36.284Z,9.32
2023-02-16T13:14:44.489Z,9.24
2023-02-16T13:19:48.289Z,9.30
2023-02-16T13:25:01.683Z,8.96
2023-02-16T13:30:31.268Z,8.79
2023-02-16T13:35:58.791Z,9.10
2023-02-16T13:41:34.893Z,9.14
2023-02-16T13:46:46.660Z,9.11
2023-02-16T13:51:50.763Z,9.00
2023-02-16T13:56:54.952Z,9.49
2023-02-16T14:01:59.288Z,9.64
2023-02-16T14:07:22.208Z,9.55
2023-02-16T14:12:31.842Z,9.65
2023-02-16T14:17:37.218Z,9.36
2023-02-16T14:22:53.660Z,9.41
2023-02-16T14:27:58.692Z,9.27
2023-02-16T14:33:16.452Z,9.37
2023-02-16T14:38:27.382Z,9.30
2023-02-16T14:43:34.348Z,9.10
2023-02-16T14:48:56.723Z,8.90
2023-02-16T14:54:22.846Z,9.06
2023-02-16T14:59:32.758Z,9.16
2023-02-16T15:04:39.767Z,8.95
2023-02-16T15:09:47.605Z,8.95
2023-02-16T15:14:53.518Z,9.09
2023-02-16T15:20:02.805Z,8.68
2023-02-16T15:25:16.866Z,8.49
2023-02-16T15:30:24.037Z,8.78
2023-02-16T15:35:32.307Z,8.81
2023-02-16T15:40:35.960Z,8.76
2023-02-16T15:45:39.471Z,8.86
2023-02-16T15:50:44.588Z,8.69
2023-02-16T15:55:48.409Z,8.70
2023-02-16T16:00:51.608Z,8.86
2023-02-16T16:06:01.239Z,8.59
2023-02-16T16:11:04.643Z,8.67
2023-02-16T16:16:10.073Z,8.79
2023-02-16T16:21:25.783Z,8.88
2023-02-16T16:26:31.688Z,8.81
2023-02-16T16:31:42.918Z,8.82
2023-02-16T16:36:54.954Z,8.80
2023-02-16T16:42:21.849Z,8.71
2023-02-16T16:47:29.405Z,8.71
2023-02-16T16:52:40.417Z,8.84
2023-02-16T16:57:43.598Z,8.91
2023-02-16T17:02:46.543Z,8.89
2023-02-16T17:07:51.846Z,8.88
2023-02-16T17:12:59.927Z,8.96
2023-02-16T17:18:03.077Z,8.93
2023-02-16T17:23:07.327Z,8.91
2023-02-16T17:28:11.376Z,8.89
2023-02-16T17:33:14.363Z,8.90
2023-02-16T17:38:21.557Z,8.86
2023-02-16T17:43:26.303Z,8.94
2023-02-16T17:48:31.130Z,8.95
2023-02-16T17:53:35.341Z,8.96
2023-02-16T17:58:38.164Z,8.94
2023-02-16T18:03:41.099Z,8.76
2023-02-16T18:08:45.834Z,8.88
2023-02-16T18:13:48.686Z,8.95
2023-02-16T18:18:51.807Z,8.96
2023-02-16T18:23:56.071Z,9.06
2023-02-16T18:28:59.054Z,8.98
2023-02-16T18:34:01.878Z,9.09
2023-02-16T18:39:06.605Z,9.08
2023-02-16T18:44:09.391Z,8.85
2023-02-16T18:49:12.146Z,8.99
2023-02-16T18:54:16.475Z,8.82
2023-02-16T18:59:19.381Z,8.96
2023-02-16T19:04:22.226Z,9.13
2023-02-16T19:09:26.608Z,8.94
2023-02-16T19:14:29.470Z,9.05
2023-02-16T19:19:33.101Z,9.12
2023-02-16T19:24:37.289Z,9.26
2023-02-16T19:29:41.209Z,8.91
2023-02-16T19:34:43.982Z,8.81
2023-02-16T19:39:48.349Z,8.50
2023-02-16T19:44:51.233Z,8.04
2023-02-16T19:49:54.053Z,7.72
2023-02-16T19:54:58.219Z,7.83
2023-02-16T20:00:03.219Z,7.58
2023-02-16T20:05:14.654Z,7.65
2023-02-16T20:10:19.050Z,7.39
2023-02-16T20:15:21.882Z,7.20
2023-02-16T20:20:24.768Z,7.34
2023-02-16T20:25:28.923Z,7.34
2023-02-16T20:30:31.784Z,7.32
2023-02-16T20:35:34.675Z,7.29
2023-02-16T20:40:38.986Z,7.04
2023-02-16T20:45:43.082Z,7.35
2023-02-16T20:50:45.889Z,7.34
2023-02-16T20:55:50.475Z,7.32
2023-02-16T21:00:53.315Z,7.03
2023-02-16T21:05:56.993Z,7.33
2023-02-16T21:11:01.308Z,7.23
2023-02-16T21:16:04.835Z,7.18
2023-02-16T21:21:08.149Z,7.19
2023-02-16T21:26:13.371Z,7.36
2023-02-16T21:31:18.934Z,7.12
2023-02-16T21:36:23.706Z,7.07
2023-02-16T21:41:29.647Z,6.96
2023-02-16T21:46:35.031Z,6.92
2023-02-16T21:51:39.157Z,6.89
2023-02-16T21:56:45.251Z,6.97
2023-02-16T22:01:51.047Z,7.04
2023-02-16T22:06:54.712Z,6.93
2023-02-16T22:12:00.100Z,6.83
2023-02-16T22:17:04.306Z,7.22
2023-02-16T22:22:07.236Z,7.04
2023-02-16T22:27:11.547Z,7.01
2023-02-16T22:32:14.749Z,6.89
2023-02-16T22:37:17.670Z,6.87
2023-02-16T22:42:21.964Z,7.04
2023-02-16T22:47:26.150Z,6.89
2023-02-16T22:52:30.041Z,7.17
2023-02-16T22:57:38.181Z,7.18
2023-02-16T23:02:41.086Z,6.94
2023-02-16T23:07:43.872Z,7.02
2023-02-16T23:12:48.146Z,7.13
2023-02-16T23:17:50.963Z,7.19
2023-02-16T23:22:53.825Z,7.17
2023-02-16T23:27:57.997Z,6.97
2023-02-16T23:33:00.790Z,7.18
2023-02-16T23:38:04.188Z,7.23
2023-02-16T23:43:08.876Z,7.04
2023-02-16T23:48:11.647Z,7.19
2023-02-16T23:53:14.550Z,7.21
2023-02-16T23:58:18.698Z,7.03
